Ana Sayfa
METAR-TAF:

METAR-TAF

Havaalanları :

Asunción, Paraguay

Enlem: 25-16S, Boylam: 057-38W, yükseklik: 101 m

Güncel hava durumu gözlemi

Rapor saat 07:00 UTC de 53 dakika önce yapıldı.
Rüzgar batı/güneybatıdan 7 kt
Sıcaklık 11°C
Nem 76%
Basınç 1023 hPa
Görüş mesafesi 10 km veya daha fazla
3300 ft yükseklikte parçalı bulutlu
7000 ft yükseklikte çok bulutlu

METAR: SGAS 270700Z 25007KT 9999 SCT033 OVC070 11/07 Q1023

Saat: 03:53 (07:53 UTC)

Tahmin

Rapor saat 04:22 UTC de 3 saat ve 31 dakika önce yapıldı.
Ayın 27'si saat 06 UTC'den ayın 28'si saat 06 UTC'ye kadar geçerli Tahmin
Rüzgar batı/güneybatıdan 6 kt
Görüş mesafesi 10 km veya daha fazla
3300 ft yükseklikte parçalı bulutlu
Dönüşüyor
ayın 27'si saat 15 UTC'den ayın 27'si saat 18 UTC'ye kadar
Görüş mesafesi 10 km veya daha fazla
2000 ft yükseklikte parçalı çok bulutlu

TAF: SGAS 270422Z 2706/2806 25006KT 9999 SCT033 TX15/2718Z TN08/2709Z BECMG 2715/2718 9999 BKN020

4.000'den fazla havaalanı için hava durumu gözlemleri ve tahminleri (METAR ve TAF raporları).

Kullanılabilir istasyonlar harita üzerinde sarı ve kırmızı noktalarla gösterilir.

İstasyonun adını görmek için fareyi noktanın üzerinde gezdirin.

Sonrasında hava gözlem ve tahminlerini görmek için tıklayın.

Haritayı değiştirmek için: yaklaştırmak için siyah artı işaretli yeşil düğmeye ve uzaklaştırmak için de eksi işaretli düğmeye hızla tıklayın; bitişik haritalar için yeşil okları kullanın.


METAR-TAF: